Aérodrome :
LOGIN :

S'inscrire | Disclaimer

   EN    FR    IT 

 










Légende :    VFR   VFR Marginal   IFR   IFR Intensif   IFR Très Intensif
Visi : 
Plafond : 
>= 8 km
>= 3000ft
5 à 8 km
1000 à 3000 ft
1500m à 5 km
500 à 1000 ft
800 à 1500m
200 à 500 ft
< 800m
< 200 ft
Symboles :   Orages  Brouillard  Fortes neiges  Fortes précipitations  Vent > 20 kt
SIGMETs :   Divers  Orages  Givrage  Turbulence  Onde Orograph.  Cendres Volcan.







- Altitude de l'aérodrome : 82 ft
- Code IATA : ALG


DAAG - Alger Houari Boumedienne

DERNIER METAR :
  • 161800Z 27004KT 7000 -RA FEW020 FEW026CB SCT040 BKN080 17/16 Q1014

METARs EXPIRÉS :
  • 161730Z 27003KT 210V300 7000 -RA FEW016 FEW026CB SCT040 BKN080 17/16 Q1014
  • 161700Z 17002KT 8000 -RA FEW016 FEW026CB SCT043 BKN080 17/16 Q1014
  • 161630Z VRB01KT 8000 FEW016 FEW026CB SCT046 BKN080 17/16 Q1014
  • 161600Z 24003KT 8000 -RA FEW016TCU FEW026CB SCT046 BKN080 17/16 Q1014
  • 161530Z 23006KT 8000 -RA FEW020TCU FEW026CB SCT046 BKN080 18/17 Q1014

TAF TAF DAAG
Valide du 16 à 18h jusqu'au 17 à 18h UTC


161700Z 1618/1718 VRB02KT 8000 FEW016
TEMPO 1618/1703 5000 -TSRA FEW023CB
PROB40
TEMPO 1708/1717 5000 -RA FEW023CB
BECMG 1710/1713 36010KT
PROB30
TEMPO 1714/1718 VRB15G25KT 5000 -TSRA FEW026CB
Pas de NOTAMs connus pour ce terrain.
2 SIGMETs publiés pour la FIR Alger (DAAA) :
 
Orages noyés dans la masse
DAAA SIGMET 8 VALID 161800/162100 DAAA ALGER FIR EMBD TS OBS WI N3526 E00446 - N3352 E00500 - N3325 E00219 - N3525 E00219 - N3526 E00446 TOP FL360 MOV NE NC=
Orages noyés dans la masse
DAAA SIGMET 7 VALID 161800/162100 DAAA ALGER FIR EMBD TS OBS N OF LINE N3642 E00557 - N3635 E00330 TOP FL360 MOV E NC=



MET'MAP, la Météo Aéronautique d'un coup d'oeil ! - Copyright ORBIFLY Décembre 2007 - Disclaimer

ORBIFLY MET'MAP TEAM :

Programmation & Développement : Alexandra Zaïnal
Conception & Développement : Baudouin d'Aumeries
Co-Programmation & Développement : Marc-Olivier Méhu
Soutien technique & logistique : Manuel Goepfert

Contact : metmap@orbifly.com




SOURCES & CREDITS :

   NOAA